Time;durP1;ratioP1;P1;durP2;ratioP2;P2;SDS_P1;SDS_P2;PMS_P1;PMS_P2;Temp;Humidity;BMP_temperature;BMP_pressure;BME280_temperature;BME280_humidity;BME280_pressure;Samples;Min_cycle;Max_cycle;Signal;HPM_P1;HPM_P2
2022/03/01 00:00:04;;;;;;;16.30;10.55;;;1.90;99.90;;;;;;5000855;28;20068;-77
2022/03/01 00:02:30;;;;;;;15.20;11.25;;;0.90;99.90;;;;;;5017592;28;20149;-76
2022/03/01 00:04:56;;;;;;;16.35;10.50;;;1.40;99.90;;;;;;5015736;28;20164;-76
2022/03/01 00:07:21;;;;;;;17.90;11.55;;;0.80;99.90;;;;;;5000312;28;20169;-79
2022/03/01 00:09:47;;;;;;;16.95;11.20;;;2.00;99.90;;;;;;5017038;28;20056;-77
2022/03/01 00:12:13;;;;;;;17.00;10.98;;;0.80;99.90;;;;;;5028576;28;20057;-76
2022/03/01 00:14:38;;;;;;;17.48;10.82;;;1.70;99.90;;;;;;5037925;28;20053;-76
2022/03/01 00:17:04;;;;;;;16.73;11.07;;;2.20;99.90;;;;;;5036152;28;20450;-77
2022/03/01 00:19:30;;;;;;;18.55;11.52;;;1.90;99.90;;;;;;5039584;28;20080;-76
2022/03/01 00:21:58;;;;;;;18.05;11.15;;;0.70;99.90;;;;;;5040044;28;20510;-76
2022/03/01 00:24:23;;;;;;;16.50;10.80;;;2.00;99.90;;;;;;5040242;28;20128;-78
2022/03/01 00:26:49;;;;;;;15.85;10.20;;;0.70;99.90;;;;;;5039708;28;20132;-76
2022/03/01 00:29:15;;;;;;;14.70;9.60;;;1.30;99.90;;;;;;5040134;28;20041;-76
2022/03/01 00:31:41;;;;;;;17.42;10.85;;;0.70;99.90;;;;;;5056528;28;20459;-76
2022/03/01 00:34:07;;;;;;;18.45;11.45;;;0.70;99.90;;;;;;5040180;28;20445;-76
2022/03/01 00:36:33;;;;;;;14.88;9.60;;;1.00;99.90;;;;;;5037266;28;20049;-76
2022/03/01 00:38:59;;;;;;;15.80;10.57;;;0.70;99.90;;;;;;5040262;28;20487;-77
2022/03/01 00:41:24;;;;;;;18.60;11.20;;;0.10;99.90;;;;;;5035529;28;20056;-77
2022/03/01 00:43:50;;;;;;;16.55;11.05;;;1.30;99.90;;;;;;5037536;28;20044;-77
2022/03/01 00:46:17;;;;;;;16.65;10.95;;;1.40;99.90;;;;;;5020594;28;20045;-77
2022/03/01 00:48:43;;;;;;;17.35;11.48;;;0.80;99.90;;;;;;5023411;28;20088;-77
2022/03/01 00:51:09;;;;;;;15.27;10.82;;;1.60;99.90;;;;;;5037881;28;20038;-77
2022/03/01 00:53:35;;;;;;;15.43;10.93;;;0.80;99.90;;;;;;5037924;28;20076;-76
2022/03/01 00:56:04;;;;;;;16.23;10.80;;;0.80;99.90;;;;;;5029095;28;20418;-78
2022/03/01 00:58:31;;;;;;;16.17;10.77;;;1.50;99.90;;;;;;5020737;28;20047;-77
2022/03/01 01:00:56;;;;;;;16.88;10.60;;;0.80;99.90;;;;;;5021168;28;20060;-77
2022/03/01 01:03:22;;;;;;;17.70;10.73;;;0.80;99.90;;;;;;5038416;28;20041;-77
2022/03/01 01:05:48;;;;;;;16.58;10.57;;;0.80;99.90;;;;;;5053362;28;20088;-77
2022/03/01 01:08:14;;;;;;;15.68;10.70;;;0.80;99.90;;;;;;5052206;28;20077;-77
2022/03/01 01:10:40;;;;;;;17.35;11.13;;;2.00;99.90;;;;;;5053939;28;20043;-77
2022/03/01 01:13:05;;;;;;;16.05;10.75;;;0.90;99.90;;;;;;5053555;28;20104;-77
2022/03/01 01:15:31;;;;;;;17.13;10.88;;;1.10;99.90;;;;;;5037902;28;20053;-77
2022/03/01 01:17:57;;;;;;;17.85;10.75;;;1.00;99.90;;;;;;5036810;28;20051;-77
2022/03/01 01:20:23;;;;;;;16.67;10.88;;;1.00;99.90;;;;;;5019003;28;20590;-77
2022/03/01 01:22:49;;;;;;;16.10;10.63;;;1.20;99.90;;;;;;5051561;28;20045;-77
2022/03/01 01:25:23;;;;;;;17.05;11.10;;;1.00;99.90;;;;;;5051703;28;20457;-77
2022/03/01 01:27:52;;;;;;;15.05;10.23;;;2.30;99.90;;;;;;5035889;28;20120;-77
2022/03/01 01:30:20;;;;;;;17.33;10.85;;;1.10;99.90;;;;;;5029082;28;20048;-78
2022/03/01 01:32:49;;;;;;;16.92;10.63;;;2.20;99.90;;;;;;5028509;28;20057;-77
2022/03/01 01:35:20;;;;;;;14.80;10.27;;;2.20;99.90;;;;;;5050228;28;20503;-77
2022/03/01 01:37:47;;;;;;;17.63;10.88;;;1.20;99.90;;;;;;5052050;28;20486;-77
2022/03/01 01:40:15;;;;;;;17.42;11.45;;;1.80;99.90;;;;;;5036845;28;20057;-76
2022/03/01 01:42:41;;;;;;;15.48;10.15;;;2.20;99.90;;;;;;5054148;28;20081;-77
2022/03/01 01:45:08;;;;;;;16.50;11.18;;;1.80;99.90;;;;;;5033869;28;20056;-78
2022/03/01 01:47:34;;;;;;;16.80;11.02;;;1.30;99.90;;;;;;5053594;28;20053;-77
2022/03/01 01:50:00;;;;;;;16.02;10.07;;;1.30;99.90;;;;;;5034027;28;20506;-77
2022/03/01 01:52:26;;;;;;;15.90;10.50;;;2.50;99.90;;;;;;5035662;28;20048;-77
2022/03/01 01:54:53;;;;;;;17.02;10.77;;;2.10;99.90;;;;;;5035064;28;20067;-77
2022/03/01 01:57:21;;;;;;;15.68;9.77;;;1.30;99.90;;;;;;5034820;28;20107;-77
2022/03/01 01:59:49;;;;;;;17.48;10.93;;;1.30;99.90;;;;;;5039728;28;20045;-77
2022/03/01 02:02:18;;;;;;;15.70;10.15;;;1.90;99.90;;;;;;5022157;28;20056;-77
2022/03/01 02:04:44;;;;;;;18.33;10.95;;;1.30;99.90;;;;;;5027186;28;20053;-77
2022/03/01 02:07:12;;;;;;;18.50;10.98;;;1.40;99.90;;;;;;5034189;28;20060;-77
2022/03/01 02:09:38;;;;;;;14.38;10.55;;;1.70;99.90;;;;;;5040478;28;20056;-77
2022/03/01 02:12:05;;;;;;;15.95;10.27;;;1.40;99.90;;;;;;5053258;28;20622;-77
2022/03/01 02:14:32;;;;;;;15.15;9.70;;;1.40;99.90;;;;;;5034562;28;20053;-77
2022/03/01 02:17:00;;;;;;;18.05;11.27;;;2.60;99.90;;;;;;5034171;28;20560;-77
2022/03/01 02:19:26;;;;;;;17.30;10.60;;;1.40;99.90;;;;;;5050138;28;20037;-77
2022/03/01 02:21:57;;;;;;;16.33;10.65;;;1.50;99.90;;;;;;5034833;28;20064;-77
2022/03/01 02:24:25;;;;;;;17.10;9.95;;;1.50;99.90;;;;;;5003779;28;20045;-77
2022/03/01 02:27:00;;;;;;;16.88;9.95;;;1.50;99.90;;;;;;5035783;28;20040;-78
2022/03/01 02:29:27;;;;;;;16.00;10.13;;;1.40;99.90;;;;;;5035904;28;20132;-78
2022/03/01 02:31:55;;;;;;;16.63;10.68;;;1.60;99.90;;;;;;5051759;28;20049;-78
2022/03/01 02:34:21;;;;;;;17.48;10.85;;;1.40;99.90;;;;;;5036616;28;20049;-78
2022/03/01 02:36:46;;;;;;;15.88;10.50;;;1.80;99.90;;;;;;5034941;28;20059;-78
2022/03/01 02:39:13;;;;;;;15.68;10.02;;;1.90;99.90;;;;;;5044300;28;20102;-78
2022/03/01 02:41:40;;;;;;;16.02;10.27;;;1.50;99.90;;;;;;5035954;28;20075;-78
2022/03/01 02:44:07;;;;;;;14.98;10.23;;;1.80;99.90;;;;;;5018264;28;20046;-78
2022/03/01 02:46:33;;;;;;;15.43;10.27;;;1.50;99.90;;;;;;5018752;28;20141;-78
2022/03/01 02:48:59;;;;;;;15.35;10.55;;;2.50;99.90;;;;;;5035717;28;20042;-78
2022/03/01 02:51:26;;;;;;;19.00;11.70;;;1.50;99.90;;;;;;5034450;28;20083;-78
2022/03/01 02:53:52;;;;;;;16.70;10.57;;;2.20;99.90;;;;;;5052308;28;20041;-78
2022/03/01 02:56:18;;;;;;;15.95;10.43;;;2.90;99.90;;;;;;5035143;28;20037;-78
2022/03/01 02:58:44;;;;;;;15.30;10.10;;;1.30;99.90;;;;;;5019827;28;20060;-78
2022/03/01 03:01:10;;;;;;;14.57;9.93;;;1.90;99.90;;;;;;5035343;28;20085;-79
2022/03/01 03:03:35;;;;;;;14.25;10.15;;;1.60;99.90;;;;;;5018358;28;20041;-78
2022/03/01 03:06:01;;;;;;;15.27;10.70;;;2.60;99.90;;;;;;5015916;28;20049;-78
2022/03/01 03:08:27;;;;;;;16.92;10.75;;;1.70;99.90;;;;;;5034910;28;20052;-78
2022/03/01 03:10:53;;;;;;;16.45;11.32;;;1.60;99.90;;;;;;5033937;28;20042;-78
2022/03/01 03:13:20;;;;;;;17.40;11.43;;;2.10;99.90;;;;;;5039899;28;20071;-78
2022/03/01 03:15:47;;;;;;;20.58;11.85;;;1.60;99.90;;;;;;5023444;28;20056;-78
2022/03/01 03:18:15;;;;;;;17.30;11.10;;;2.40;99.90;;;;;;5037582;28;20127;-79
2022/03/01 03:20:41;;;;;;;16.27;10.02;;;1.70;99.90;;;;;;5038886;28;20105;-78
2022/03/01 03:23:07;;;;;;;18.05;11.38;;;2.10;99.90;;;;;;5007158;28;20048;-78
2022/03/01 03:25:34;;;;;;;16.20;10.98;;;2.20;99.90;;;;;;5004669;28;20052;-78
2022/03/01 03:28:00;;;;;;;16.42;10.50;;;3.10;99.90;;;;;;5038191;28;20048;-78
2022/03/01 03:30:26;;;;;;;15.35;11.13;;;2.80;99.90;;;;;;5054256;28;20048;-78
2022/03/01 03:32:52;;;;;;;17.52;11.00;;;1.80;99.90;;;;;;5038126;28;20041;-78
2022/03/01 03:35:18;;;;;;;16.80;11.10;;;1.80;99.90;;;;;;5004708;28;20048;-78
2022/03/01 03:37:44;;;;;;;13.32;10.02;;;1.80;99.90;;;;;;5055014;28;20048;-78
2022/03/01 03:40:10;;;;;;;15.73;10.52;;;1.80;99.90;;;;;;5038316;28;20110;-78
2022/03/01 03:42:36;;;;;;;16.10;10.40;;;1.80;99.90;;;;;;5054076;28;20537;-78
2022/03/01 03:45:03;;;;;;;15.25;10.48;;;2.80;99.90;;;;;;5056269;28;20048;-78
2022/03/01 03:47:29;;;;;;;15.15;10.98;;;1.80;99.90;;;;;;5038450;28;20076;-78
2022/03/01 03:49:55;;;;;;;14.90;10.63;;;1.80;99.90;;;;;;5006463;28;20087;-78
2022/03/01 03:52:21;;;;;;;16.45;11.20;;;1.80;99.90;;;;;;5039323;28;20083;-78
2022/03/01 03:54:46;;;;;;;15.52;11.00;;;1.80;99.90;;;;;;5041347;28;20048;-78
2022/03/01 03:57:12;;;;;;;18.55;10.27;;;1.80;99.90;;;;;;5010888;28;20458;-79
2022/03/01 03:59:39;;;;;;;16.80;11.13;;;1.80;99.90;;;;;;5057750;28;20082;-79
2022/03/01 04:02:06;;;;;;;17.67;11.02;;;1.80;99.90;;;;;;5040064;28;20045;-78
2022/03/01 04:04:32;;;;;;;17.75;11.15;;;3.00;99.90;;;;;;5041753;28;20417;-79
2022/03/01 04:06:58;;;;;;;16.95;10.77;;;2.80;99.90;;;;;;5025111;28;20043;-78
2022/03/01 04:09:24;;;;;;;17.55;11.10;;;3.00;99.90;;;;;;5025104;28;20056;-79
2022/03/01 04:11:50;;;;;;;16.50;10.98;;;1.90;99.90;;;;;;5023665;28;20057;-78
2022/03/01 04:14:17;;;;;;;17.08;11.43;;;2.40;99.90;;;;;;5039388;28;20414;-79
2022/03/01 04:16:44;;;;;;;18.45;11.60;;;1.90;99.90;;;;;;5026616;28;20102;-79
2022/03/01 04:19:10;;;;;;;16.55;11.18;;;2.60;99.90;;;;;;5042262;28;20053;-79
2022/03/01 04:21:37;;;;;;;17.13;10.93;;;3.20;99.90;;;;;;5040471;28;20481;-78
2022/03/01 04:24:03;;;;;;;18.42;11.70;;;1.90;99.90;;;;;;5043166;28;20091;-79
2022/03/01 04:26:29;;;;;;;18.05;11.10;;;1.90;99.90;;;;;;5055134;28;20406;-79
2022/03/01 04:28:55;;;;;;;16.30;10.77;;;2.70;99.90;;;;;;5025487;28;20092;-78
2022/03/01 04:31:22;;;;;;;17.63;11.15;;;2.00;99.90;;;;;;5056851;28;20075;-78
2022/03/01 04:33:48;;;;;;;19.88;11.63;;;1.90;99.90;;;;;;5041535;28;20043;-78
2022/03/01 04:36:14;;;;;;;16.77;11.68;;;2.70;99.90;;;;;;5041526;28;20376;-79
2022/03/01 04:38:41;;;;;;;15.57;10.65;;;2.60;99.90;;;;;;5039023;28;20499;-79
2022/03/01 04:41:07;;;;;;;16.48;11.02;;;2.10;99.90;;;;;;5025736;28;20049;-78
2022/03/01 04:43:33;;;;;;;16.70;10.85;;;2.60;99.90;;;;;;5023077;28;20072;-78
2022/03/01 04:45:59;;;;;;;16.75;10.90;;;2.10;99.90;;;;;;5031431;28;20091;-78
2022/03/01 04:48:25;;;;;;;19.35;11.65;;;2.30;99.90;;;;;;5055872;28;20055;-78
2022/03/01 04:50:52;;;;;;;17.48;11.20;;;2.10;99.90;;;;;;5039768;28;20110;-78
2022/03/01 04:53:18;;;;;;;17.73;10.98;;;3.00;99.90;;;;;;5025250;28;20041;-78
2022/03/01 04:55:44;;;;;;;15.70;10.93;;;2.70;99.90;;;;;;5023739;28;20052;-78
2022/03/01 04:58:10;;;;;;;16.27;11.55;;;2.00;99.90;;;;;;5039769;28;20056;-78
2022/03/01 05:00:36;;;;;;;17.70;11.68;;;2.00;99.90;;;;;;5041102;28;20680;-78
2022/03/01 05:03:02;;;;;;;16.27;11.77;;;2.00;99.90;;;;;;5023829;28;20047;-78
2022/03/01 05:05:28;;;;;;;18.10;11.32;;;2.00;99.90;;;;;;5056686;28;20494;-78
2022/03/01 05:07:55;;;;;;;16.20;11.70;;;2.00;99.90;;;;;;5026734;28;20056;-78
2022/03/01 05:10:21;;;;;;;18.20;10.27;;;2.10;99.90;;;;;;5039153;28;20119;-78
2022/03/01 05:13:01;;;;;;;17.73;10.90;;;3.20;99.90;;;;;;5055982;28;20053;-78
2022/03/01 05:15:28;;;;;;;16.67;11.30;;;2.10;99.90;;;;;;5039033;28;20052;-78
2022/03/01 05:17:55;;;;;;;16.50;11.15;;;2.10;99.90;;;;;;5024785;28;20056;-79
2022/03/01 05:20:22;;;;;;;17.23;11.32;;;2.30;99.90;;;;;;5025305;28;20049;-78
2022/03/01 05:22:48;;;;;;;16.55;10.65;;;2.20;99.90;;;;;;5038835;28;20040;-78
2022/03/01 05:25:17;;;;;;;18.13;11.57;;;2.20;99.90;;;;;;5040777;28;20071;-78
2022/03/01 05:27:46;;;;;;;18.05;12.05;;;2.20;99.90;;;;;;5038840;28;20523;-79
2022/03/01 05:30:14;;;;;;;16.33;10.30;;;3.40;99.90;;;;;;5058252;28;20052;-77
2022/03/01 05:32:43;;;;;;;16.73;10.63;;;2.20;99.90;;;;;;5041904;28;20115;-77
2022/03/01 05:35:10;;;;;;;18.20;11.00;;;2.20;99.90;;;;;;5041270;28;20041;-79
2022/03/01 05:37:37;;;;;;;14.00;10.35;;;2.60;99.90;;;;;;5042304;28;20059;-78
2022/03/01 05:40:04;;;;;;;16.75;10.93;;;2.20;99.90;;;;;;5025641;28;20055;-78
2022/03/01 05:42:30;;;;;;;20.00;11.52;;;2.20;99.90;;;;;;5040487;28;20046;-79
2022/03/01 05:44:55;;;;;;;16.88;11.32;;;2.20;99.90;;;;;;5038948;28;20044;-79
2022/03/01 05:47:22;;;;;;;17.40;11.10;;;2.20;99.90;;;;;;5023927;28;20052;-79
2022/03/01 05:49:47;;;;;;;17.15;11.20;;;2.20;99.90;;;;;;5040836;28;20094;-78
2022/03/01 05:52:13;;;;;;;16.55;10.88;;;2.20;99.90;;;;;;5038085;28;20542;-79
2022/03/01 05:54:39;;;;;;;18.38;11.50;;;3.50;99.90;;;;;;5029771;28;20052;-79
2022/03/01 05:57:05;;;;;;;14.48;9.93;;;3.00;99.90;;;;;;5039835;28;20140;-76
2022/03/01 05:59:31;;;;;;;15.95;10.85;;;2.20;99.90;;;;;;5039731;28;20143;-76
2022/03/01 06:01:57;;;;;;;16.45;11.23;;;2.60;99.90;;;;;;5039762;28;20512;-76
2022/03/01 06:04:23;;;;;;;18.48;12.52;;;2.20;99.90;;;;;;5054590;28;20126;-76
2022/03/01 06:06:49;;;;;;;17.58;11.75;;;2.20;99.90;;;;;;5038362;28;20052;-76
2022/03/01 06:09:15;;;;;;;17.45;11.13;;;2.20;99.90;;;;;;5021477;28;20063;-76
2022/03/01 06:11:41;;;;;;;17.73;11.60;;;2.20;99.90;;;;;;5005612;28;20049;-76
2022/03/01 06:14:06;;;;;;;17.58;10.82;;;3.00;99.90;;;;;;5022851;28;20049;-76
2022/03/01 06:16:32;;;;;;;19.65;12.00;;;3.20;99.90;;;;;;5021954;28;20059;-76
2022/03/01 06:18:58;;;;;;;17.05;11.65;;;2.40;99.90;;;;;;5038283;28;20761;-76
2022/03/01 06:21:24;;;;;;;19.23;12.18;;;3.60;99.90;;;;;;5006937;28;20048;-76
2022/03/01 06:23:50;;;;;;;16.70;11.13;;;3.40;99.90;;;;;;5039187;28;20189;-76
2022/03/01 06:26:18;;;;;;;16.85;11.77;;;2.20;99.90;;;;;;5019605;28;20616;-77
2022/03/01 06:28:44;;;;;;;17.65;11.15;;;2.20;99.90;;;;;;5025717;28;20057;-76
2022/03/01 06:31:10;;;;;;;18.33;11.57;;;2.20;99.90;;;;;;4996399;28;20044;-77
2022/03/01 06:33:36;;;;;;;19.48;11.80;;;2.20;99.90;;;;;;5022184;28;20048;-76
2022/03/01 06:36:02;;;;;;;19.65;12.02;;;2.20;99.90;;;;;;5055787;28;20176;-76
2022/03/01 06:38:27;;;;;;;18.00;11.70;;;2.20;99.90;;;;;;5021135;28;20045;-77
2022/03/01 06:40:56;;;;;;;18.95;11.82;;;2.20;99.90;;;;;;5037961;28;20049;-76
2022/03/01 06:43:25;;;;;;;14.30;10.15;;;2.30;99.90;;;;;;5023200;28;20506;-76
2022/03/01 06:45:51;;;;;;;18.40;11.15;;;2.30;99.90;;;;;;5038150;28;20502;-76
2022/03/01 06:48:17;;;;;;;18.67;11.68;;;3.20;99.90;;;;;;5038133;28;20040;-77
2022/03/01 06:50:44;;;;;;;16.55;11.27;;;2.30;99.90;;;;;;5006466;28;20405;-76
2022/03/01 06:53:13;;;;;;;18.80;11.45;;;2.30;99.90;;;;;;5039280;28;20059;-76
2022/03/01 06:55:40;;;;;;;18.35;11.80;;;2.40;99.90;;;;;;5054984;28;20052;-76
2022/03/01 06:58:06;;;;;;;18.40;11.95;;;2.40;99.90;;;;;;5024206;28;20044;-76
2022/03/01 07:00:32;;;;;;;16.70;11.77;;;2.40;99.90;;;;;;5054623;28;20045;-77
2022/03/01 07:02:57;;;;;;;18.45;11.25;;;2.40;99.90;;;;;;5022572;28;20087;-76
2022/03/01 07:05:23;;;;;;;16.40;11.55;;;2.60;99.90;;;;;;5024067;28;20117;-75
2022/03/01 07:07:49;;;;;;;14.65;10.13;;;2.40;99.90;;;;;;5053405;28;20049;-80
2022/03/01 07:10:15;;;;;;;14.85;10.15;;;2.40;99.90;;;;;;5037828;28;20045;-76
2022/03/01 07:12:44;;;;;;;17.02;11.10;;;2.80;99.90;;;;;;5021446;28;20133;-75
2022/03/01 07:15:10;;;;;;;15.07;10.95;;;2.40;99.90;;;;;;5041549;28;20053;-77
2022/03/01 07:17:36;;;;;;;16.58;11.50;;;2.40;99.90;;;;;;5023440;28;20049;-76
2022/03/01 07:20:04;;;;;;;17.88;11.85;;;1.70;99.90;;;;;;5023762;28;20059;-77
2022/03/01 07:22:30;;;;;;;17.42;11.57;;;2.50;99.90;;;;;;5036550;28;20052;-77
2022/03/01 07:24:56;;;;;;;17.00;11.18;;;2.50;99.90;;;;;;5038707;28;20041;-76
2022/03/01 07:27:22;;;;;;;16.55;10.93;;;2.70;99.90;;;;;;5008082;28;20052;-76
2022/03/01 07:29:47;;;;;;;16.70;10.63;;;2.60;99.90;;;;;;5025602;28;20839;-76
2022/03/01 07:32:13;;;;;;;16.85;11.25;;;2.60;99.90;;;;;;5034078;28;20076;-76
2022/03/01 07:34:39;;;;;;;15.10;10.40;;;2.70;99.90;;;;;;5027045;28;20128;-77
2022/03/01 07:37:06;;;;;;;17.58;10.68;;;2.70;99.90;;;;;;5024760;28;20448;-76
2022/03/01 07:39:32;;;;;;;16.98;11.63;;;2.70;99.90;;;;;;5058323;28;20517;-76
2022/03/01 07:41:58;;;;;;;17.38;11.27;;;3.30;99.90;;;;;;5025050;28;20060;-76
2022/03/01 07:44:23;;;;;;;15.55;10.75;;;2.70;99.90;;;;;;5057488;28;20052;-80
2022/03/01 07:46:49;;;;;;;17.52;10.73;;;2.80;99.90;;;;;;5040615;28;20098;-79
2022/03/01 07:49:15;;;;;;;16.98;11.32;;;2.90;99.90;;;;;;5060840;28;20049;-79
2022/03/01 07:51:41;;;;;;;18.08;11.32;;;2.90;99.90;;;;;;5011849;28;20472;-86
2022/03/01 07:54:07;;;;;;;16.88;10.98;;;3.90;99.90;;;;;;5025509;28;20044;-79
2022/03/01 07:56:33;;;;;;;18.13;11.10;;;2.90;99.90;;;;;;5040752;28;20044;-78
2022/03/01 07:58:59;;;;;;;15.90;10.73;;;2.90;99.90;;;;;;5042878;28;20402;-78
2022/03/01 08:01:25;;;;;;;17.70;11.00;;;4.00;99.90;;;;;;5025760;28;20067;-79
2022/03/01 08:03:50;;;;;;;16.63;11.63;;;4.00;99.90;;;;;;5042974;28;20068;-78
2022/03/01 08:06:16;;;;;;;15.30;11.02;;;3.00;99.90;;;;;;5039359;28;20044;-77
2022/03/01 08:08:43;;;;;;;16.02;11.70;;;3.70;99.90;;;;;;5023869;28;20637;-77
2022/03/01 08:11:08;;;;;;;17.20;10.73;;;4.50;99.90;;;;;;5029875;28;20049;-78
2022/03/01 08:13:35;;;;;;;16.95;11.30;;;4.00;99.90;;;;;;5056898;28;20429;-77
2022/03/01 08:16:03;;;;;;;15.90;11.35;;;3.10;99.90;;;;;;5042076;28;20080;-78
2022/03/01 08:18:29;;;;;;;16.27;10.95;;;3.10;99.90;;;;;;5041845;28;20053;-78
2022/03/01 08:20:55;;;;;;;18.55;11.95;;;3.10;99.90;;;;;;5057550;28;20083;-78
2022/03/01 08:23:21;;;;;;;16.10;10.95;;;3.20;99.90;;;;;;5025819;28;20072;-77
2022/03/01 08:25:46;;;;;;;17.15;11.27;;;3.20;99.90;;;;;;5043661;28;20135;-77
2022/03/01 08:28:13;;;;;;;17.30;11.45;;;4.30;99.90;;;;;;5027188;28;20128;-78
2022/03/01 08:30:39;;;;;;;18.25;12.10;;;3.20;99.90;;;;;;5026741;28;20410;-77
2022/03/01 08:33:05;;;;;;;18.67;12.32;;;3.60;99.90;;;;;;5043138;28;20056;-78
2022/03/01 08:35:34;;;;;;;20.85;13.02;;;3.30;99.90;;;;;;5027096;28;20072;-77
2022/03/01 08:38:05;;;;;;;22.95;11.45;;;3.30;99.90;;;;;;5040906;28;20497;-78
2022/03/01 08:40:33;;;;;;;15.63;11.60;;;3.40;99.90;;;;;;5043791;28;20041;-78
2022/03/01 08:42:59;;;;;;;20.00;12.40;;;3.60;99.90;;;;;;5042713;28;20143;-79
2022/03/01 08:45:25;;;;;;;17.92;12.63;;;3.40;99.90;;;;;;5026508;28;20056;-79
2022/03/01 08:47:51;;;;;;;15.30;10.63;;;3.50;99.90;;;;;;5026159;28;20155;-79
2022/03/01 08:50:18;;;;;;;17.15;10.93;;;3.50;99.90;;;;;;5043102;28;20056;-81
2022/03/01 08:52:43;;;;;;;18.10;12.43;;;4.40;99.90;;;;;;5027172;28;20070;-79
2022/03/01 08:55:10;;;;;;;17.98;12.10;;;3.70;99.90;;;;;;5009875;28;20053;-78
2022/03/01 08:57:36;;;;;;;15.43;11.82;;;3.80;99.90;;;;;;5041952;28;20052;-78
2022/03/01 09:00:08;;;;;;;17.00;12.52;;;5.30;99.90;;;;;;5058629;28;20040;-78
2022/03/01 09:02:34;;;;;;;19.55;12.52;;;3.90;99.90;;;;;;5060968;28;20127;-78
2022/03/01 09:05:00;;;;;;;16.30;11.23;;;3.90;99.90;;;;;;5042340;28;20098;-79
2022/03/01 09:07:26;;;;;;;18.27;12.43;;;3.90;99.90;;;;;;5026260;28;20420;-78
2022/03/01 09:09:52;;;;;;;18.67;12.77;;;3.90;99.90;;;;;;5025704;28;20052;-78
2022/03/01 09:12:18;;;;;;;20.00;12.40;;;4.00;99.90;;;;;;5025234;28;20507;-78
2022/03/01 09:14:44;;;;;;;18.63;12.50;;;4.10;99.90;;;;;;5058378;28;20494;-76
2022/03/01 09:17:10;;;;;;;17.63;12.60;;;4.60;99.90;;;;;;5053778;28;20179;-76
2022/03/01 09:19:35;;;;;;;18.55;12.65;;;4.50;99.90;;;;;;5018749;28;20135;-77
2022/03/01 09:22:02;;;;;;;16.33;11.90;;;5.20;99.90;;;;;;5021019;28;20091;-76
2022/03/01 09:24:28;;;;;;;19.20;12.50;;;4.30;99.90;;;;;;5037060;28;20053;-76
2022/03/01 09:26:54;;;;;;;20.02;12.55;;;5.20;99.90;;;;;;5035599;28;20159;-76
2022/03/01 09:29:20;;;;;;;19.27;12.85;;;4.30;99.90;;;;;;5055237;28;20056;-76
2022/03/01 09:31:45;;;;;;;18.48;12.23;;;4.40;99.90;;;;;;5053665;28;20963;-76
2022/03/01 09:34:11;;;;;;;19.02;12.75;;;4.50;99.90;;;;;;5036691;28;20037;-75
2022/03/01 09:36:37;;;;;;;18.92;12.05;;;4.50;99.90;;;;;;5053114;28;20060;-76
2022/03/01 09:39:03;;;;;;;17.85;12.15;;;4.70;99.90;;;;;;5028964;28;20048;-76
2022/03/01 09:41:31;;;;;;;18.52;13.77;;;4.60;99.90;;;;;;5037390;28;20053;-76
2022/03/01 09:43:58;;;;;;;19.42;13.57;;;4.60;99.90;;;;;;5054808;28;20115;-76
2022/03/01 09:46:24;;;;;;;16.85;12.30;;;4.70;99.90;;;;;;5037484;28;20059;-76
2022/03/01 09:48:50;;;;;;;18.55;12.88;;;4.70;99.90;;;;;;5035518;28;20042;-76
2022/03/01 09:51:16;;;;;;;17.45;12.65;;;5.00;99.90;;;;;;5036286;28;20045;-76
2022/03/01 09:53:43;;;;;;;17.27;11.68;;;4.80;99.90;;;;;;5039154;28;20040;-76
2022/03/01 09:56:09;;;;;;;18.25;13.02;;;4.90;99.90;;;;;;5052469;28;20044;-76
2022/03/01 09:58:36;;;;;;;18.80;12.70;;;5.80;99.90;;;;;;5054046;28;20418;-76
2022/03/01 10:01:02;;;;;;;18.17;12.85;;;4.90;99.90;;;;;;5052791;28;20063;-76
2022/03/01 10:03:28;;;;;;;15.65;11.77;;;4.90;99.90;;;;;;5035302;28;20052;-76
2022/03/01 10:06:08;;;;;;;16.95;12.70;;;4.90;99.90;;;;;;5018268;28;20052;-77
2022/03/01 10:08:34;;;;;;;18.30;13.00;;;4.90;99.90;;;;;;5034916;28;20045;-75
2022/03/01 10:11:00;;;;;;;17.90;12.85;;;4.90;99.90;;;;;;5022598;28;20060;-76
2022/03/01 10:13:34;;;;;;;18.20;13.18;;;4.90;99.90;;;;;;5055305;28;20131;-76
2022/03/01 10:16:09;;;;;;;18.83;12.90;;;5.00;99.90;;;;;;5041173;28;20040;-76
2022/03/01 10:18:41;;;;;;;20.13;13.73;;;5.80;99.90;;;;;;5056910;28;20052;-76
2022/03/01 10:21:14;;;;;;;18.58;13.60;;;5.40;99.90;;;;;;5023465;28;20047;-76
2022/03/01 10:23:47;;;;;;;15.73;11.65;;;5.00;99.90;;;;;;5039804;28;20048;-76
2022/03/01 10:26:22;;;;;;;18.90;12.77;;;6.40;99.90;;;;;;5040366;28;20087;-76
2022/03/01 10:28:49;;;;;;;20.48;12.93;;;5.00;99.90;;;;;;5039760;28;20041;-76
2022/03/01 10:31:22;;;;;;;15.13;11.68;;;5.20;99.90;;;;;;5024607;28;20068;-76
2022/03/01 10:34:23;;;;;;;18.98;12.93;;;5.00;99.90;;;;;;5055084;28;20489;-76
2022/03/01 10:36:50;;;;;;;17.17;12.50;;;5.00;99.90;;;;;;5015844;28;20049;-76
2022/03/01 10:39:25;;;;;;;19.23;13.32;;;5.10;99.90;;;;;;5029198;28;20609;-77
2022/03/01 10:41:52;;;;;;;16.17;12.50;;;5.10;99.90;;;;;;5039398;28;20048;-76
2022/03/01 10:44:20;;;;;;;18.15;13.10;;;5.10;99.90;;;;;;5025111;28;20041;-76
2022/03/01 10:46:51;;;;;;;17.08;12.52;;;5.10;99.90;;;;;;5040941;28;20056;-76
2022/03/01 10:49:21;;;;;;;19.83;13.88;;;6.20;99.90;;;;;;5029521;28;20559;-76
2022/03/01 10:51:51;;;;;;;18.30;13.52;;;5.10;99.90;;;;;;5022711;28;20044;-76
2022/03/01 10:54:38;;;;;;;17.65;12.50;;;5.10;99.90;;;;;;5038058;28;20075;-76
2022/03/01 10:57:10;;;;;;;20.00;14.02;;;5.10;99.90;;;;;;5046433;28;20836;-78
2022/03/01 10:59:37;;;;;;;17.73;12.57;;;5.20;99.90;;;;;;5039036;28;20445;-77
2022/03/01 11:02:04;;;;;;;18.00;13.20;;;5.20;99.90;;;;;;5037915;28;20177;-78
2022/03/01 11:04:30;;;;;;;19.00;13.18;;;5.20;99.90;;;;;;5022200;28;20044;-77
2022/03/01 11:07:04;;;;;;;18.27;13.00;;;5.30;99.90;;;;;;5056490;28;20056;-79
2022/03/01 11:09:32;;;;;;;17.60;13.23;;;5.30;99.90;;;;;;5039810;28;20922;-78
2022/03/01 11:12:01;;;;;;;19.67;14.38;;;6.20;99.90;;;;;;5023686;28;20062;-82
2022/03/01 11:14:52;;;;;;;17.88;13.15;;;5.30;99.90;;;;;;5000169;28;20487;-82
2022/03/01 11:17:33;;;;;;;18.55;12.93;;;5.30;99.90;;;;;;5017888;28;20076;-80
2022/03/01 11:20:35;;;;;;;19.70;12.85;;;5.30;99.90;;;;;;5000429;28;20813;-81
2022/03/01 11:23:10;;;;;;;17.38;12.32;;;5.30;99.90;;;;;;4985867;28;20058;-77
2022/03/01 11:25:46;;;;;;;18.08;12.48;;;5.60;99.90;;;;;;4999553;28;20435;-80
2022/03/01 11:28:13;;;;;;;17.27;13.02;;;5.80;99.90;;;;;;4993085;28;20081;-80
2022/03/01 11:30:45;;;;;;;18.42;12.98;;;5.40;99.90;;;;;;5009217;28;20050;-80
2022/03/01 11:33:11;;;;;;;19.38;13.70;;;5.40;99.90;;;;;;5000356;28;20371;-80
2022/03/01 11:35:41;;;;;;;19.13;12.82;;;5.50;99.90;;;;;;5016194;28;20069;-80
2022/03/01 11:38:13;;;;;;;18.48;13.13;;;5.60;99.90;;;;;;5016993;28;20045;-79
2022/03/01 11:40:44;;;;;;;19.42;14.10;;;5.60;99.90;;;;;;5025165;28;20159;-80
2022/03/01 11:43:32;;;;;;;18.13;13.05;;;5.70;99.90;;;;;;5016813;28;20115;-80
2022/03/01 11:46:00;;;;;;;19.73;12.90;;;5.70;99.90;;;;;;5016129;28;20108;-77
2022/03/01 11:48:29;;;;;;;18.50;13.32;;;5.80;99.90;;;;;;4994741;28;20045;-76
2022/03/01 11:51:06;;;;;;;20.15;13.52;;;5.90;99.90;;;;;;5010542;28;20096;-76
2022/03/01 11:53:37;;;;;;;18.45;12.95;;;6.00;99.90;;;;;;5028801;28;20061;-76
2022/03/01 11:56:05;;;;;;;19.42;13.57;;;6.10;99.90;;;;;;4997126;28;20095;-76
2022/03/01 11:58:37;;;;;;;18.38;13.57;;;6.10;99.90;;;;;;4997042;28;20088;-76
2022/03/01 12:01:09;;;;;;;20.70;13.35;;;6.20;99.90;;;;;;4997756;28;20581;-76
2022/03/01 12:03:37;;;;;;;15.80;12.77;;;6.20;99.90;;;;;;4994136;28;20049;-76
2022/03/01 12:06:11;;;;;;;17.70;13.20;;;6.30;99.90;;;;;;5011589;28;20071;-76
2022/03/01 12:08:38;;;;;;;17.00;13.10;;;6.40;99.90;;;;;;4995758;28;20054;-76
2022/03/01 12:11:04;;;;;;;18.65;13.60;;;6.70;99.90;;;;;;4999722;28;20052;-76
2022/03/01 12:13:42;;;;;;;18.35;13.30;;;6.70;99.90;;;;;;5018549;28;20056;-76
2022/03/01 12:16:13;;;;;;;19.30;14.07;;;6.50;99.90;;;;;;5036665;28;20068;-76
2022/03/01 12:18:41;;;;;;;19.50;13.77;;;6.50;99.90;;;;;;5054053;28;20049;-77
2022/03/01 12:21:12;;;;;;;18.10;14.25;;;6.60;99.90;;;;;;5023450;28;20052;-76
2022/03/01 12:23:43;;;;;;;19.80;13.85;;;6.70;99.90;;;;;;5037994;28;20071;-77
2022/03/01 12:26:12;;;;;;;20.05;13.63;;;6.60;99.90;;;;;;5053990;28;20061;-77
2022/03/01 12:28:49;;;;;;;19.20;14.10;;;6.70;99.90;;;;;;5022511;28;20513;-76
2022/03/01 12:31:26;;;;;;;18.30;14.35;;;6.80;99.90;;;;;;5054638;28;20048;-76
2022/03/01 12:33:58;;;;;;;20.00;13.85;;;6.80;99.90;;;;;;5021310;28;20082;-76
2022/03/01 12:36:27;;;;;;;18.70;13.27;;;6.80;99.90;;;;;;5039562;28;20049;-76
2022/03/01 12:38:59;;;;;;;20.55;14.25;;;6.80;99.90;;;;;;5055157;28;20084;-76